Time;durP1;ratioP1;P1;durP2;ratioP2;P2;SDS_P1;SDS_P2;PMS_P1;PMS_P2;Temp;Humidity;BMP_temperature;BMP_pressure;BME280_temperature;BME280_humidity;BME280_pressure;Samples;Min_cycle;Max_cycle;Signal;HPM_P1;HPM_P2
2024/03/12 00:00:40;;;;;;;54.63;36.05;;;;;;;6.47;100.00;69109.00;5101039;28;20406;-48
2024/03/12 00:03:09;;;;;;;60.83;38.05;;;;;;;6.49;100.00;69113.34;5092359;28;20388;-48
2024/03/12 00:05:38;;;;;;;56.58;36.47;;;;;;;6.50;100.00;69111.91;5108786;28;20051;-47
2024/03/12 00:08:07;;;;;;;58.92;38.58;;;;;;;6.48;100.00;69112.19;5097902;28;20050;-46
2024/03/12 00:10:36;;;;;;;55.40;36.65;;;;;;;6.50;100.00;69115.09;5107676;28;20461;-48
2024/03/12 00:13:06;;;;;;;64.28;39.70;;;;;;;6.51;100.00;69115.69;5099537;28;20054;-49
2024/03/12 00:15:36;;;;;;;58.20;37.65;;;;;;;6.50;100.00;69109.31;5091983;28;20040;-46
2024/03/12 00:18:05;;;;;;;55.70;37.30;;;;;;;6.50;100.00;69111.91;5102348;28;20085;-47
2024/03/12 00:20:34;;;;;;;59.85;37.88;;;;;;;6.51;100.00;69115.69;5107119;28;20048;-48
2024/03/12 00:23:05;;;;;;;55.97;35.78;;;;;;;6.52;100.00;69120.00;5096264;28;20046;-47
2024/03/12 00:25:34;;;;;;;57.50;37.28;;;;;;;6.52;100.00;69114.25;5102410;28;20039;-47
2024/03/12 00:28:05;;;;;;;58.55;38.95;;;;;;;6.52;100.00;69114.84;5095574;28;20048;-46
2024/03/12 00:30:35;;;;;;;55.25;36.63;;;;;;;6.54;100.00;69121.75;5107314;28;20039;-46
2024/03/12 00:33:05;;;;;;;61.20;37.05;;;;;;;6.58;100.00;69121.22;5103651;28;20068;-46
2024/03/12 00:35:35;;;;;;;61.67;37.72;;;;;;;6.55;100.00;69115.72;5103435;28;20101;-46
2024/03/12 00:38:04;;;;;;;60.80;37.85;;;;;;;6.54;100.00;69114.56;5098847;28;20055;-47
2024/03/12 00:40:34;;;;;;;61.03;38.63;;;;;;;6.54;100.00;69119.75;5099404;28;20067;-47
2024/03/12 00:43:05;;;;;;;61.67;37.53;;;;;;;6.55;100.00;69115.16;5098963;28;20085;-47
2024/03/12 00:45:41;;;;;;;62.55;39.22;;;;;;;6.55;100.00;69118.31;5099588;28;20039;-47
2024/03/12 00:48:12;;;;;;;57.55;37.60;;;;;;;6.56;100.00;69118.91;5097325;28;20040;-46
2024/03/12 00:50:42;;;;;;;64.13;40.57;;;;;;;6.55;100.00;69115.72;5089342;28;20126;-46
2024/03/12 00:53:11;;;;;;;61.35;39.40;;;;;;;6.55;100.00;69117.75;5091658;28;20101;-46
2024/03/12 00:55:41;;;;;;;68.95;40.20;;;;;;;6.55;100.00;69120.34;5099465;28;20044;-47
2024/03/12 00:58:10;;;;;;;66.72;40.65;;;;;;;6.58;100.00;69123.81;5095718;28;20509;-49
2024/03/12 01:00:41;;;;;;;71.45;42.20;;;;;;;6.60;100.00;69124.13;5102756;28;20054;-50
2024/03/12 01:03:11;;;;;;;73.03;42.63;;;;;;;6.58;100.00;69124.41;5094203;28;20118;-46
2024/03/12 01:05:41;;;;;;;72.07;40.80;;;;;;;6.56;100.00;69119.47;5103218;28;20491;-46
2024/03/12 01:08:11;;;;;;;74.80;41.38;;;;;;;6.59;100.00;69122.41;5087825;28;20047;-46
2024/03/12 01:10:40;;;;;;;71.35;41.60;;;;;;;6.59;100.00;69125.00;5103063;28;20119;-47
2024/03/12 01:13:09;;;;;;;71.55;40.63;;;;;;;6.60;100.00;69124.13;5087486;28;20705;-46
2024/03/12 01:15:41;;;;;;;70.55;40.25;;;;;;;6.64;100.00;69127.63;5111260;28;20505;-45
2024/03/12 01:18:09;;;;;;;69.80;41.13;;;;;;;6.63;100.00;69127.06;5098561;28;20046;-47
2024/03/12 01:20:38;;;;;;;74.35;40.33;;;;;;;6.62;100.00;69123.28;5106843;28;20052;-48
2024/03/12 01:23:07;;;;;;;75.43;41.83;;;;;;;6.62;100.00;69125.31;5098264;28;20143;-46
2024/03/12 01:25:35;;;;;;;76.25;39.33;;;;;;;6.67;100.00;69131.13;5106190;28;20444;-46
2024/03/12 01:28:06;;;;;;;79.45;41.95;;;;;;;6.58;100.00;69121.81;5103821;28;20039;-48
2024/03/12 01:30:36;;;;;;;81.82;40.88;;;;;;;6.57;100.00;69118.06;5096040;28;20048;-48
2024/03/12 01:33:07;;;;;;;85.70;41.58;;;;;;;6.56;100.00;69113.72;5101750;28;20055;-47
2024/03/12 01:35:37;;;;;;;80.85;40.75;;;;;;;6.53;100.00;69116.00;5091875;28;20051;-45
2024/03/12 01:38:09;;;;;;;76.28;41.15;;;;;;;6.52;100.00;69112.25;5102231;28;20044;-49
2024/03/12 01:40:41;;;;;;;84.15;41.83;;;;;;;6.54;100.00;69117.16;5105784;28;20056;-47
2024/03/12 01:43:12;;;;;;;82.72;40.28;;;;;;;6.53;100.00;69118.00;5105211;28;20376;-50
2024/03/12 01:45:43;;;;;;;75.22;39.83;;;;;;;6.54;100.00;69116.56;5113282;28;20044;-50
2024/03/12 01:48:13;;;;;;;65.88;37.30;;;;;;;6.54;100.00;69113.97;5105304;28;20040;-47
2024/03/12 01:50:41;;;;;;;66.93;37.85;;;;;;;6.53;100.00;69121.19;5106819;28;20356;-50
2024/03/12 01:53:10;;;;;;;72.45;39.65;;;;;;;6.55;100.00;69120.34;5109856;28;20062;-47
2024/03/12 01:55:42;;;;;;;69.20;39.85;;;;;;;6.57;100.00;69122.66;5100424;28;20054;-47
2024/03/12 01:58:14;;;;;;;71.68;38.20;;;;;;;6.59;100.00;69125.56;5097507;28;20085;-47
2024/03/12 02:00:45;;;;;;;72.68;38.45;;;;;;;6.55;100.00;69118.31;5111521;28;20510;-46
2024/03/12 02:03:18;;;;;;;69.93;39.40;;;;;;;6.53;100.00;69115.41;5110101;28;20086;-46
2024/03/12 02:05:47;;;;;;;77.72;37.35;;;;;;;6.52;100.00;69117.44;5101269;28;20039;-47
2024/03/12 02:08:16;;;;;;;72.50;40.03;;;;;;;6.54;100.00;69114.56;5102542;28;20042;-47
2024/03/12 02:10:45;;;;;;;74.35;38.80;;;;;;;6.52;100.00;69114.25;5094472;28;20118;-46
2024/03/12 02:13:14;;;;;;;77.68;39.13;;;;;;;6.49;100.00;69110.75;5111656;28;20051;-46
2024/03/12 02:15:43;;;;;;;75.35;38.85;;;;;;;6.50;100.00;69109.91;5105978;28;20044;-45
2024/03/12 02:18:11;;;;;;;81.05;40.25;;;;;;;6.49;100.00;69113.34;5102954;28;20047;-45
2024/03/12 02:20:41;;;;;;;79.80;40.05;;;;;;;6.49;100.00;69108.75;5094020;28;20047;-46
2024/03/12 02:23:11;;;;;;;75.55;37.10;;;;;;;6.49;100.00;69113.94;5102560;28;20482;-45
2024/03/12 02:25:42;;;;;;;81.25;39.83;;;;;;;6.48;100.00;69112.78;5104652;28;20128;-47
2024/03/12 02:28:11;;;;;;;81.18;39.58;;;;;;;6.44;100.00;69105.53;5102683;28;20479;-46
2024/03/12 02:30:40;;;;;;;76.30;40.63;;;;;;;6.46;100.00;69104.69;5106156;28;20067;-47
2024/03/12 02:33:09;;;;;;;82.53;40.13;;;;;;;6.48;100.00;69110.19;5096462;28;20032;-47
2024/03/12 02:35:37;;;;;;;78.13;38.85;;;;;;;6.48;100.00;69107.59;5108585;28;20105;-47
2024/03/12 02:38:05;;;;;;;80.55;40.03;;;;;;;6.46;100.00;69107.84;5093846;28;20072;-49
2024/03/12 02:40:33;;;;;;;75.93;39.47;;;;;;;6.48;100.00;69107.59;5093566;28;20040;-48
2024/03/12 02:43:03;;;;;;;72.75;38.72;;;;;;;6.47;100.00;69105.84;5102521;28;20036;-47
2024/03/12 02:45:32;;;;;;;74.05;37.08;;;;;;;6.49;100.00;69113.94;5112540;28;20093;-46
2024/03/12 02:48:03;;;;;;;72.50;38.08;;;;;;;6.51;100.00;69118.84;5105626;28;20047;-49
2024/03/12 02:50:32;;;;;;;69.72;37.60;;;;;;;6.51;100.00;69107.91;5100836;28;20032;-47
2024/03/12 02:53:00;;;;;;;75.18;38.53;;;;;;;6.50;100.00;69112.50;5090458;28;20128;-46
2024/03/12 02:55:29;;;;;;;77.95;37.58;;;;;;;6.50;100.00;69112.50;5090597;28;20054;-46
2024/03/12 02:57:57;;;;;;;68.85;37.53;;;;;;;6.49;100.00;69110.75;5107306;28;20047;-45
2024/03/12 03:00:28;;;;;;;74.72;37.60;;;;;;;6.50;100.00;69104.16;5102342;28;20102;-48
2024/03/12 03:02:57;;;;;;;74.33;35.87;;;;;;;6.51;100.00;69113.66;5107180;28;20436;-51
2024/03/12 03:05:25;;;;;;;76.13;38.22;;;;;;;6.50;100.00;69114.50;5098525;28;20082;-53
2024/03/12 03:07:54;;;;;;;69.07;36.55;;;;;;;6.51;100.00;69116.25;5096293;28;20046;-52
2024/03/12 03:10:23;;;;;;;77.60;38.47;;;;;;;6.51;100.00;69110.50;5099007;28;20044;-48
2024/03/12 03:12:51;;;;;;;72.13;37.95;;;;;;;6.53;100.00;69118.00;5097268;28;20036;-52
2024/03/12 03:15:20;;;;;;;77.75;37.33;;;;;;;6.52;100.00;69114.25;5096829;28;20114;-51
2024/03/12 03:17:51;;;;;;;75.57;38.20;;;;;;;6.52;100.00;69114.25;5102334;28;20052;-49
2024/03/12 03:20:20;;;;;;;73.03;35.03;;;;;;;6.55;100.00;69115.16;5104970;28;20050;-51
2024/03/12 03:22:48;;;;;;;62.45;35.30;;;;;;;6.52;100.00;69109.06;5110447;28;20490;-48
2024/03/12 03:25:19;;;;;;;72.22;35.20;;;;;;;6.54;100.00;69111.97;5098246;28;20044;-53
2024/03/12 03:27:47;;;;;;;63.97;36.20;;;;;;;6.52;100.00;69117.44;5091908;28;20051;-49
2024/03/12 03:30:19;;;;;;;59.20;34.03;;;;;;;6.51;100.00;69113.66;5102202;28;20039;-50
2024/03/12 03:32:52;;;;;;;60.25;34.83;;;;;;;6.50;100.00;69115.09;5107685;28;20104;-50
2024/03/12 03:35:20;;;;;;;60.72;34.95;;;;;;;6.49;100.00;69110.75;5111845;28;20054;-46
2024/03/12 03:37:48;;;;;;;60.22;33.88;;;;;;;6.51;100.00;69116.25;5102970;28;20044;-49
2024/03/12 03:40:23;;;;;;;56.92;32.30;;;;;;;6.52;100.00;69117.44;5100404;28;20048;-48
2024/03/12 03:42:55;;;;;;;55.22;33.13;;;;;;;6.53;100.00;69115.41;5099773;28;20475;-47
2024/03/12 03:45:24;;;;;;;57.90;32.90;;;;;;;6.50;100.00;69112.50;5100684;28;20040;-47
2024/03/12 03:47:54;;;;;;;57.22;30.70;;;;;;;6.48;100.00;69112.78;5098588;28;20495;-48
2024/03/12 03:50:22;;;;;;;55.15;31.60;;;;;;;6.49;100.00;69111.34;5099222;28;20114;-49
2024/03/12 03:52:52;;;;;;;58.60;31.48;;;;;;;6.51;100.00;69116.25;5110585;28;20043;-48
2024/03/12 03:55:22;;;;;;;51.35;31.52;;;;;;;6.51;100.00;69113.09;5095004;28;20479;-46
2024/03/12 03:57:50;;;;;;;52.75;30.67;;;;;;;6.50;100.00;69112.50;5103231;28;20048;-46
2024/03/12 04:00:23;;;;;;;55.60;31.30;;;;;;;6.51;100.00;69107.91;5110031;28;20494;-48
2024/03/12 04:02:51;;;;;;;52.20;28.73;;;;;;;6.52;100.00;69114.84;5098899;28;20048;-48
2024/03/12 04:05:22;;;;;;;48.70;28.92;;;;;;;6.50;100.00;69112.50;5108195;28;20455;-46
2024/03/12 04:07:51;;;;;;;45.03;27.70;;;;;;;6.52;100.00;69116.84;5092466;28;20044;-48
2024/03/12 04:10:19;;;;;;;51.38;27.90;;;;;;;6.51;100.00;69113.66;5100293;28;20036;-46
2024/03/12 04:12:48;;;;;;;48.80;28.65;;;;;;;6.54;100.00;69113.97;5091067;28;20043;-46
2024/03/12 04:15:21;;;;;;;41.58;26.27;;;;;;;6.55;100.00;69120.91;5099865;28;20125;-47
2024/03/12 04:17:50;;;;;;;45.70;27.02;;;;;;;6.54;100.00;69114.56;5101716;28;20433;-46
2024/03/12 04:20:23;;;;;;;42.85;27.05;;;;;;;6.57;100.00;69120.66;5104010;28;20051;-45
2024/03/12 04:22:51;;;;;;;45.97;25.33;;;;;;;6.56;100.00;69124.66;5101421;28;20491;-47
2024/03/12 04:25:20;;;;;;;41.25;24.65;;;;;;;6.55;100.00;69115.16;5103032;28;20047;-46
2024/03/12 04:27:48;;;;;;;39.00;24.60;;;;;;;6.56;100.00;69119.47;5109376;28;20427;-47
2024/03/12 04:30:18;;;;;;;40.85;23.67;;;;;;;6.52;100.00;69114.84;5103130;28;20046;-48
2024/03/12 04:32:47;;;;;;;36.22;24.20;;;;;;;6.53;100.00;69118.59;5102568;28;20104;-45
2024/03/12 04:35:15;;;;;;;39.05;23.75;;;;;;;6.52;100.00;69114.25;5094889;28;20105;-45
2024/03/12 04:37:45;;;;;;;40.40;22.58;;;;;;;6.52;100.00;69112.25;5096682;28;20051;-46
2024/03/12 04:40:15;;;;;;;39.40;23.00;;;;;;;6.52;100.00;69114.25;5091801;28;20061;-46
2024/03/12 04:42:45;;;;;;;35.22;22.35;;;;;;;6.56;100.00;69113.72;5099757;28;20091;-47
2024/03/12 04:45:14;;;;;;;37.15;21.33;;;;;;;6.52;100.00;69117.44;5101858;28;20498;-45
2024/03/12 04:47:42;;;;;;;38.33;22.67;;;;;;;6.51;100.00;69113.66;5097332;28;20384;-45
2024/03/12 04:50:14;;;;;;;39.25;22.33;;;;;;;6.51;100.00;69113.66;5107389;28;20048;-47
2024/03/12 04:52:42;;;;;;;43.03;22.60;;;;;;;6.51;100.00;69116.25;5102171;28;20047;-46
2024/03/12 04:55:14;;;;;;;41.05;22.65;;;;;;;6.49;100.00;69110.75;5093922;28;20036;-46
2024/03/12 04:57:43;;;;;;;39.05;20.95;;;;;;;6.53;100.00;69118.00;5099950;28;20122;-47
2024/03/12 05:00:18;;;;;;;36.85;21.48;;;;;;;6.54;100.00;69114.56;5089634;28;20146;-47
2024/03/12 05:02:47;;;;;;;41.55;22.65;;;;;;;6.53;100.00;69115.41;5106999;28;20048;-47
2024/03/12 05:05:17;;;;;;;40.95;23.33;;;;;;;6.51;100.00;69108.47;5091826;28;20040;-50
2024/03/12 05:07:46;;;;;;;44.78;23.27;;;;;;;6.47;100.00;69106.41;5094510;28;20048;-49
2024/03/12 05:10:16;;;;;;;38.97;21.58;;;;;;;6.48;100.00;69107.59;5102650;28;20536;-46
2024/03/12 05:12:44;;;;;;;42.00;23.40;;;;;;;6.47;100.00;69109.00;5099195;28;20448;-49
2024/03/12 05:15:13;;;;;;;43.50;23.55;;;;;;;6.48;100.00;69112.19;5091078;28;20059;-45
2024/03/12 05:17:42;;;;;;;42.95;22.88;;;;;;;6.48;100.00;69112.19;5100922;28;20165;-48
2024/03/12 05:20:14;;;;;;;40.85;20.50;;;;;;;6.52;100.00;69114.25;5096203;28;20044;-48
2024/03/12 05:22:43;;;;;;;36.33;20.63;;;;;;;6.49;100.00;69110.75;5097322;28;20039;-48
2024/03/12 05:25:19;;;;;;;40.60;21.15;;;;;;;6.50;100.00;69114.50;5095480;28;20149;-48
2024/03/12 05:27:49;;;;;;;36.83;21.92;;;;;;;6.48;100.00;69109.59;5099768;28;20055;-50
2024/03/12 05:30:20;;;;;;;39.70;22.52;;;;;;;6.46;100.00;69105.25;5091010;28;20127;-47
2024/03/12 05:32:53;;;;;;;38.65;21.20;;;;;;;6.44;100.00;69102.94;5098859;28;20044;-46
2024/03/12 05:35:22;;;;;;;38.75;21.58;;;;;;;6.45;100.00;69104.09;5097329;28;20052;-50
2024/03/12 05:38:10;;;;;;;36.22;21.10;;;;;;;6.44;100.00;69102.94;5090845;28;20138;-50
2024/03/12 05:40:57;;;;;;;33.58;19.88;;;;;;;6.46;100.00;69107.28;5092818;28;20067;-47
2024/03/12 05:49:02;;;;;;;37.80;19.63;;;;;;;6.46;100.00;69107.84;5095418;28;20113;-46
2024/03/12 05:51:34;;;;;;;37.72;20.58;;;;;;;6.45;100.00;69100.91;5097958;28;20071;-46
2024/03/12 05:54:05;;;;;;;37.50;19.95;;;;;;;6.42;100.00;69103.19;5097466;28;20048;-47
2024/03/12 05:56:35;;;;;;;47.67;22.58;;;;;;;6.40;100.00;69101.44;5108922;28;20095;-45
2024/03/12 05:59:05;;;;;;;38.60;20.52;;;;;;;6.43;100.00;69102.38;5102835;28;20491;-49
2024/03/12 06:01:33;;;;;;;37.72;20.65;;;;;;;6.38;100.00;69098.53;5094646;28;20040;-44
2024/03/12 06:04:02;;;;;;;44.75;22.15;;;;;;;6.37;100.00;69097.38;5101778;28;20043;-47
2024/03/12 06:06:32;;;;;;;43.17;21.48;;;;;;;6.41;100.00;69099.44;5093872;28;20048;-47
2024/03/12 06:09:01;;;;;;;45.95;22.80;;;;;;;6.45;100.00;69108.69;5093985;28;20058;-45
2024/03/12 06:11:31;;;;;;;47.65;22.52;;;;;;;6.41;100.00;69099.44;5102174;28;20047;-46
2024/03/12 06:14:00;;;;;;;50.65;23.13;;;;;;;6.39;100.00;69102.28;5099477;28;20126;-46
2024/03/12 06:16:33;;;;;;;48.00;22.53;;;;;;;6.38;100.00;69095.94;5106016;28;20494;-47
2024/03/12 06:19:01;;;;;;;51.30;24.13;;;;;;;6.30;100.00;69089.22;5106340;28;20529;-44
2024/03/12 06:21:32;;;;;;;52.17;24.83;;;;;;;6.32;100.00;69092.16;5108004;28;20542;-45
2024/03/12 06:24:00;;;;;;;59.05;25.75;;;;;;;6.33;100.00;69092.75;5103632;28;20059;-45
2024/03/12 06:26:29;;;;;;;55.03;24.83;;;;;;;6.34;100.00;69091.28;5101900;28;20077;-44
2024/03/12 06:28:58;;;;;;;51.28;24.95;;;;;;;6.33;100.00;69092.75;5107364;28;20036;-45
2024/03/12 06:31:26;;;;;;;52.92;24.92;;;;;;;6.33;100.00;69087.56;5110914;28;20047;-46
2024/03/12 06:33:55;;;;;;;55.35;23.80;;;;;;;6.31;100.00;69090.97;5098577;28;20532;-45
2024/03/12 06:36:27;;;;;;;59.58;24.20;;;;;;;6.31;100.00;69088.38;5096024;28;20047;-44
2024/03/12 06:38:55;;;;;;;50.75;24.23;;;;;;;6.29;100.00;69082.91;5093690;28;20471;-45
2024/03/12 06:41:24;;;;;;;53.30;24.85;;;;;;;6.29;100.00;69086.06;5093984;28;20058;-44
2024/03/12 06:43:52;;;;;;;51.97;22.63;;;;;;;6.32;100.00;69089.56;5108508;28;20051;-45
2024/03/12 06:46:20;;;;;;;53.40;23.23;;;;;;;6.23;100.00;69081.66;5090828;28;20379;-45
2024/03/12 06:48:49;;;;;;;52.08;23.27;;;;;;;6.25;100.00;69086.59;5096923;28;20131;-45
2024/03/12 06:51:19;;;;;;;53.22;24.17;;;;;;;6.25;100.00;69082.00;5106602;28;20364;-45
2024/03/12 06:53:48;;;;;;;46.45;22.50;;;;;;;6.27;100.00;69083.72;5090012;28;20390;-47
2024/03/12 06:56:17;;;;;;;45.67;23.17;;;;;;;6.26;100.00;69087.78;5089061;28;20487;-47
2024/03/12 06:58:46;;;;;;;54.97;23.98;;;;;;;6.27;100.00;69083.72;5104745;28;20050;-49
2024/03/12 07:01:15;;;;;;;49.13;23.08;;;;;;;6.26;100.00;69085.19;5090984;28;20477;-49
2024/03/12 07:03:44;;;;;;;44.90;22.33;;;;;;;6.29;100.00;69086.06;5098537;28;20078;-47
2024/03/12 07:06:16;;;;;;;49.97;23.25;;;;;;;6.22;100.00;69077.94;5093186;28;20084;-50
2024/03/12 07:08:46;;;;;;;48.85;22.98;;;;;;;6.28;100.00;69086.91;5098496;28;20055;-46
2024/03/12 07:11:17;;;;;;;48.25;22.45;;;;;;;6.25;100.00;69084.59;5088683;28;20046;-45
2024/03/12 07:13:48;;;;;;;48.33;22.45;;;;;;;6.31;100.00;69088.38;5093131;28;20507;-46
2024/03/12 07:16:17;;;;;;;43.30;20.75;;;;;;;6.32;100.00;69089.56;5100792;28;20044;-44
2024/03/12 07:18:46;;;;;;;53.30;22.40;;;;;;;6.29;100.00;69086.06;5100669;28;20546;-46
2024/03/12 07:21:16;;;;;;;44.55;21.90;;;;;;;6.31;100.00;69090.41;5093022;28;20166;-44
2024/03/12 07:23:44;;;;;;;48.83;21.15;;;;;;;6.31;100.00;69087.81;5100145;28;20052;-48
2024/03/12 07:26:13;;;;;;;45.10;20.98;;;;;;;6.33;100.00;69090.16;5103567;28;20043;-44
2024/03/12 07:28:42;;;;;;;43.38;21.73;;;;;;;6.33;100.00;69092.75;5111165;28;20164;-44
2024/03/12 07:31:11;;;;;;;42.70;21.30;;;;;;;6.32;100.00;69091.56;5100448;28;20048;-44
2024/03/12 07:33:40;;;;;;;48.30;22.55;;;;;;;6.31;100.00;69087.81;5099451;28;20047;-45
2024/03/12 07:36:09;;;;;;;51.72;21.88;;;;;;;6.34;100.00;69093.88;5097611;28;20477;-44
2024/03/12 07:38:39;;;;;;;51.85;21.33;;;;;;;6.30;100.00;69084.66;5102175;28;20059;-46
2024/03/12 07:41:08;;;;;;;42.83;20.63;;;;;;;6.37;100.00;69097.38;5098068;28;20063;-44
2024/03/12 07:43:39;;;;;;;44.90;21.60;;;;;;;6.37;100.00;69094.81;5087090;28;20048;-46
2024/03/12 07:46:08;;;;;;;42.85;20.52;;;;;;;6.36;100.00;69098.81;5090794;28;20068;-46
2024/03/12 07:48:37;;;;;;;41.17;20.33;;;;;;;6.39;100.00;69097.13;5092537;28;20181;-45
2024/03/12 07:51:09;;;;;;;40.55;19.08;;;;;;;6.37;100.00;69094.81;5097044;28;20043;-46
2024/03/12 07:53:37;;;;;;;37.67;19.35;;;;;;;6.34;100.00;69099.66;5100144;28;20073;-44
2024/03/12 07:56:06;;;;;;;44.55;20.15;;;;;;;6.35;100.00;69098.22;5094728;28;20110;-45
2024/03/12 07:58:35;;;;;;;39.58;20.85;;;;;;;6.35;100.00;69095.63;5102866;28;20142;-47
2024/03/12 08:01:05;;;;;;;45.17;21.20;;;;;;;6.38;100.00;69098.53;5102371;28;20056;-45
2024/03/12 08:03:36;;;;;;;40.88;20.27;;;;;;;6.37;100.00;69099.97;5092946;28;20495;-45
2024/03/12 08:06:05;;;;;;;39.60;20.08;;;;;;;6.39;100.00;69099.72;5106160;28;20044;-45
2024/03/12 08:08:36;;;;;;;34.60;18.90;;;;;;;6.39;100.00;69100.31;5092198;28;20043;-46
2024/03/12 08:11:05;;;;;;;38.38;19.77;;;;;;;6.41;100.00;69100.03;5109125;28;20095;-45
2024/03/12 08:13:34;;;;;;;40.05;20.10;;;;;;;6.41;100.00;69099.44;5098831;28;20093;-44
2024/03/12 08:16:03;;;;;;;35.33;19.02;;;;;;;6.41;100.00;69102.03;5091408;28;20471;-46
2024/03/12 08:18:32;;;;;;;34.70;18.88;;;;;;;6.42;100.00;69105.78;5096454;28;20071;-50
2024/03/12 08:21:02;;;;;;;35.50;18.95;;;;;;;6.42;100.00;69101.19;5096352;28;20052;-46
2024/03/12 08:23:30;;;;;;;42.38;20.20;;;;;;;6.42;100.00;69105.78;5101183;28;20126;-47
2024/03/12 08:25:58;;;;;;;44.53;21.02;;;;;;;6.40;100.00;69100.88;5108993;28;20039;-47
2024/03/12 08:28:30;;;;;;;41.30;20.02;;;;;;;6.41;100.00;69107.81;5093065;28;20472;-44
2024/03/12 08:30:59;;;;;;;41.55;19.75;;;;;;;6.43;100.00;69102.38;5099417;28;20115;-45
2024/03/12 08:33:41;;;;;;;39.20;20.52;;;;;;;6.46;100.00;69105.25;5090942;28;20494;-44
2024/03/12 08:36:10;;;;;;;38.50;19.73;;;;;;;6.49;100.00;69110.75;5102549;28;20783;-45
2024/03/12 08:38:39;;;;;;;40.65;20.75;;;;;;;6.51;100.00;69113.66;5090910;28;20076;-45
2024/03/12 08:41:10;;;;;;;39.60;19.73;;;;;;;6.51;100.00;69118.84;5101737;28;20047;-46
2024/03/12 08:43:38;;;;;;;39.28;20.50;;;;;;;6.54;100.00;69119.16;5106838;28;20047;-47
2024/03/12 08:46:07;;;;;;;41.55;20.95;;;;;;;6.54;100.00;69119.16;5100469;28;20331;-49
2024/03/12 08:48:36;;;;;;;39.03;19.33;;;;;;;6.54;100.00;69114.56;5103350;28;20495;-50
2024/03/12 08:51:08;;;;;;;37.42;19.15;;;;;;;6.54;100.00;69117.16;5096622;28;20134;-45
2024/03/12 08:53:36;;;;;;;39.05;19.55;;;;;;;6.58;100.00;69121.81;5108589;28;20051;-44
2024/03/12 08:56:05;;;;;;;44.03;19.65;;;;;;;6.60;100.00;69123.56;5105069;28;20047;-45
2024/03/12 08:58:33;;;;;;;40.88;19.30;;;;;;;6.59;100.00;69122.41;5099453;28;20151;-44
2024/03/12 09:01:04;;;;;;;38.80;20.17;;;;;;;6.58;100.00;69119.22;5096101;28;20114;-48
2024/03/12 09:03:33;;;;;;;40.63;21.10;;;;;;;6.58;100.00;69118.63;5093839;28;20082;-47
2024/03/12 09:06:02;;;;;;;42.00;19.63;;;;;;;6.67;100.00;69133.72;5098062;28;20104;-48
2024/03/12 09:08:31;;;;;;;40.38;20.88;;;;;;;6.63;100.00;69126.47;5096881;28;20135;-47
2024/03/12 09:11:00;;;;;;;40.88;21.50;;;;;;;6.64;100.00;69125.63;5082459;28;20050;-47
2024/03/12 09:13:28;;;;;;;40.90;20.58;;;;;;;6.67;100.00;69134.28;5099149;28;20498;-48
2024/03/12 09:15:57;;;;;;;41.42;22.23;;;;;;;6.75;100.00;69140.44;5095212;28;20097;-48
2024/03/12 09:18:25;;;;;;;41.47;20.48;;;;;;;6.76;100.00;69139.00;5110596;28;20466;-47
2024/03/12 09:20:55;;;;;;;36.00;20.35;;;;;;;6.75;100.00;69141.00;5101890;28;20040;-44
2024/03/12 09:23:25;;;;;;;36.85;20.10;;;;;;;6.76;100.00;69141.59;5108210;28;20051;-45
2024/03/12 09:25:55;;;;;;;35.85;18.88;;;;;;;6.75;100.00;69141.00;5101646;28;20063;-45
2024/03/12 09:28:23;;;;;;;40.00;21.05;;;;;;;6.74;100.00;69136.69;5110162;28;20518;-45
2024/03/12 09:30:51;;;;;;;35.83;18.85;;;;;;;6.79;100.00;69147.09;5103894;28;20055;-45
2024/03/12 09:33:19;;;;;;;35.03;18.60;;;;;;;6.76;100.00;69142.19;5113512;27;20438;-46
2024/03/12 09:35:48;;;;;;;38.90;18.77;;;;;;;6.78;100.00;69143.91;5103504;28;20048;-47
2024/03/12 09:38:17;;;;;;;32.00;16.25;;;;;;;6.80;100.00;69143.06;5099558;28;20468;-44
2024/03/12 09:40:47;;;;;;;29.77;15.68;;;;;;;6.80;100.00;69143.66;5109328;28;20097;-44
2024/03/12 09:43:23;;;;;;;29.50;15.02;;;;;;;6.78;100.00;69138.72;5100866;28;20032;-45
2024/03/12 09:45:52;;;;;;;31.63;16.67;;;;;;;6.77;100.00;69140.72;5096366;28;20055;-44
2024/03/12 09:48:21;;;;;;;25.02;15.63;;;;;;;6.84;100.00;69150.31;5108733;28;20040;-45
2024/03/12 09:50:50;;;;;;;29.83;15.70;;;;;;;6.85;100.00;69149.47;5102592;28;20055;-44
2024/03/12 09:53:21;;;;;;;26.80;15.35;;;;;;;6.87;100.00;69151.22;5092631;28;20071;-45
2024/03/12 09:55:50;;;;;;;28.00;15.45;;;;;;;6.85;100.00;69148.91;5089526;28;20059;-45
2024/03/12 09:58:20;;;;;;;29.80;15.32;;;;;;;6.85;100.00;69152.06;5099113;28;20115;-45
2024/03/12 10:00:48;;;;;;;27.05;15.20;;;;;;;6.87;100.00;69156.41;5104956;28;20456;-45
2024/03/12 10:03:19;;;;;;;26.50;14.73;;;;;;;6.87;100.00;69157.00;5094652;28;20046;-46
2024/03/12 10:05:47;;;;;;;29.15;15.95;;;;;;;6.89;100.00;69156.72;5101747;28;20053;-46
2024/03/12 10:08:17;;;;;;;28.70;15.80;;;;;;;6.91;100.00;69158.47;5102582;28;20093;-48
2024/03/12 10:10:47;;;;;;;32.47;15.32;;;;;;;6.91;100.00;69156.47;5101889;28;20046;-45
2024/03/12 10:13:17;;;;;;;31.10;16.42;;;;;;;6.91;100.00;69164.25;5094330;28;20036;-44
2024/03/12 10:15:53;;;;;;;30.60;16.60;;;;;;;6.98;100.00;69168.63;5094223;28;20044;-44
2024/03/12 10:18:22;;;;;;;28.75;16.67;;;;;;;7.06;100.00;69175.34;5095327;28;20048;-45
2024/03/12 10:20:54;;;;;;;31.73;16.42;;;;;;;7.09;100.00;69178.84;5109362;28;20067;-44
2024/03/12 10:23:25;;;;;;;31.58;16.88;;;;;;;7.08;100.00;69172.47;5101726;28;20044;-44
2024/03/12 10:25:56;;;;;;;28.23;16.50;;;;;;;7.12;100.00;69182.31;5109378;28;20450;-48
2024/03/12 10:28:26;;;;;;;28.17;16.27;;;;;;;7.14;100.00;69182.06;5111016;28;20050;-47
2024/03/12 10:31:08;;;;;;;34.33;18.10;;;;;;;7.21;100.00;69195.41;5096367;28;20120;-47
2024/03/12 10:33:42;;;;;;;31.10;17.55;;;;;;;7.25;100.00;69194.88;5092623;28;20044;-48
2024/03/12 10:36:11;;;;;;;30.80;18.35;;;;;;;7.24;100.00;69198.88;5107544;28;20506;-51
2024/03/12 10:38:40;;;;;;;31.42;17.58;;;;;;;7.30;100.00;69200.09;5094085;28;20075;-48
2024/03/12 10:41:17;;;;;;;34.03;18.52;;;;;;;7.37;100.00;69213.44;5102160;28;20043;-47
2024/03/12 10:43:47;;;;;;;35.10;18.88;;;;;;;7.42;100.00;69219.25;5105185;28;20046;-48
2024/03/12 10:46:17;;;;;;;31.63;19.45;;;;;;;7.46;100.00;69218.16;5111565;28;20044;-51
2024/03/12 10:48:48;;;;;;;34.42;19.88;;;;;;;7.47;100.00;69224.50;5111893;28;20063;-49
2024/03/12 10:51:19;;;;;;;33.85;17.73;;;;;;;7.53;100.00;69223.69;5110283;28;20077;-48
2024/03/12 10:53:50;;;;;;;33.60;19.15;;;;;;;7.53;100.00;69223.69;5108257;28;20059;-48
2024/03/12 10:56:19;;;;;;;31.55;19.15;;;;;;;7.57;100.00;69230.38;5095832;28;20170;-48
2024/03/12 10:58:48;;;;;;;29.92;18.65;;;;;;;7.64;100.00;69232.75;5111613;28;20054;-47
2024/03/12 11:01:19;;;;;;;32.08;17.90;;;;;;;7.65;100.00;69241.69;5091831;28;20633;-50
2024/03/12 11:03:49;;;;;;;32.35;18.30;;;;;;;7.66;100.00;69243.44;5104213;28;20044;-45
2024/03/12 11:06:22;;;;;;;30.23;18.00;;;;;;;7.61;100.00;69238.19;5100216;28;20127;-46
2024/03/12 11:08:51;;;;;;;30.27;18.13;;;;;;;7.68;100.00;69245.19;5090599;28;20052;-45
2024/03/12 11:11:19;;;;;;;31.20;18.35;;;;;;;7.67;100.00;69244.03;5097734;28;20040;-45
2024/03/12 11:13:50;;;;;;;31.02;18.75;;;;;;;7.72;100.00;69249.84;5100891;28;20491;-45
2024/03/12 11:16:23;;;;;;;30.73;19.38;;;;;;;7.77;100.00;69255.66;5100798;28;20443;-44
2024/03/12 11:18:53;;;;;;;34.53;18.65;;;;;;;7.81;100.00;69260.31;5107227;28;20043;-44
2024/03/12 11:21:31;;;;;;;32.05;19.17;;;;;;;7.85;100.00;69264.97;5101499;28;20065;-45
2024/03/12 11:23:59;;;;;;;30.98;18.88;;;;;;;7.88;100.00;69265.88;5099539;28;20048;-47
2024/03/12 11:26:33;;;;;;;29.65;19.30;;;;;;;7.87;100.00;69267.31;5101120;28;20046;-45
2024/03/12 11:29:03;;;;;;;32.30;19.23;;;;;;;7.93;100.00;69271.72;5104489;28;20046;-45
2024/03/12 11:31:37;;;;;;;31.02;18.92;;;;;;;7.99;100.00;69282.72;5088614;28;20055;-45
2024/03/12 11:34:06;;;;;;;30.38;18.40;;;;;;;8.04;100.00;69286.53;5100743;28;20043;-45